Time;durP1;ratioP1;P1;durP2;ratioP2;P2;SDS_P1;SDS_P2;PMS_P1;PMS_P2;Temp;Humidity;BMP_temperature;BMP_pressure;BME280_temperature;BME280_humidity;BME280_pressure;Samples;Min_cycle;Max_cycle;Signal;HPM_P1;HPM_P2
2023/06/11 00:01:20;;;;;;;4.90;4.50;;;20.10;1.00;;;;;;4968440;28;21477;-76
2023/06/11 00:03:52;;;;;;;4.23;3.70;;;20.10;1.00;;;;;;4963283;28;20832;-77
2023/06/11 00:06:21;;;;;;;4.03;3.60;;;20.10;1.00;;;;;;4965581;28;20542;-77
2023/06/11 00:08:48;;;;;;;4.83;3.90;;;20.00;1.00;;;;;;4966707;28;21326;-77
2023/06/11 00:11:15;;;;;;;5.97;4.00;;;20.00;1.00;;;;;;4966780;28;20466;-77
2023/06/11 00:13:44;;;;;;;4.80;3.73;;;20.00;1.00;;;;;;4961849;28;20496;-77
2023/06/11 00:16:12;;;;;;;6.90;4.23;;;19.90;1.00;;;;;;4965042;28;20463;-77
2023/06/11 00:18:41;;;;;;;4.87;3.60;;;19.90;1.00;;;;;;4967656;28;20849;-77
2023/06/11 00:21:08;;;;;;;4.17;3.77;;;19.80;1.00;;;;;;4961445;28;20471;-77
2023/06/11 00:23:36;;;;;;;5.73;4.10;;;19.80;1.00;;;;;;4966495;28;20567;-78
2023/06/11 00:26:04;;;;;;;3.97;3.57;;;19.70;1.00;;;;;;4962152;28;20536;-76
2023/06/11 00:28:31;;;;;;;4.90;3.50;;;19.70;1.00;;;;;;4962385;28;20473;-77
2023/06/11 00:31:03;;;;;;;6.37;3.40;;;19.60;1.00;;;;;;4950068;28;20455;-77
2023/06/11 00:33:30;;;;;;;6.13;3.30;;;19.60;1.00;;;;;;4961622;28;20484;-77
2023/06/11 00:35:57;;;;;;;4.37;3.60;;;19.60;1.00;;;;;;4965181;28;20534;-77
2023/06/11 00:38:28;;;;;;;5.23;3.70;;;19.60;1.00;;;;;;4961804;28;20477;-76
2023/06/11 00:40:55;;;;;;;5.37;3.57;;;19.50;1.00;;;;;;4964607;28;20455;-76
2023/06/11 00:43:23;;;;;;;4.10;3.50;;;19.40;1.00;;;;;;4964154;28;20914;-76
2023/06/11 00:45:51;;;;;;;6.13;3.20;;;19.40;1.00;;;;;;4963346;28;20473;-77
2023/06/11 00:48:22;;;;;;;6.43;3.20;;;19.30;1.00;;;;;;4963515;28;20560;-78
2023/06/11 00:50:50;;;;;;;5.00;4.30;;;19.30;1.00;;;;;;4967144;28;20944;-77
2023/06/11 00:53:18;;;;;;;4.97;3.90;;;19.30;1.00;;;;;;4962531;28;20476;-76
2023/06/11 00:55:46;;;;;;;6.40;3.80;;;19.20;1.00;;;;;;4965405;28;20467;-77
2023/06/11 00:58:14;;;;;;;4.77;4.03;;;19.20;1.00;;;;;;4961963;28;20514;-78
2023/06/11 01:00:45;;;;;;;8.80;3.80;;;19.20;1.00;;;;;;4961449;28;21292;-77
2023/06/11 01:03:17;;;;;;;3.87;3.57;;;19.10;1.00;;;;;;4945789;28;20579;-77
2023/06/11 01:05:49;;;;;;;6.13;4.00;;;19.10;1.00;;;;;;4961856;28;20468;-77
2023/06/11 01:09:01;;;;;;;4.53;3.73;;;19.00;1.00;;;;;;4951724;28;20546;-77
2023/06/11 01:11:29;;;;;;;4.00;3.60;;;19.00;1.00;;;;;;4962148;28;20473;-76
2023/06/11 01:13:58;;;;;;;4.33;3.00;;;18.90;1.00;;;;;;4963850;28;20481;-77
2023/06/11 01:16:37;;;;;;;3.70;3.40;;;18.90;1.00;;;;;;4966761;28;20511;-76
2023/06/11 01:19:32;;;;;;;4.90;3.70;;;18.90;1.00;;;;;;4961195;28;20467;-77
2023/06/11 01:22:08;;;;;;;4.03;3.20;;;18.80;1.00;;;;;;4961175;28;20558;-77
2023/06/11 01:24:45;;;;;;;3.77;3.47;;;18.70;1.00;;;;;;4962691;28;20472;-78
2023/06/11 01:27:29;;;;;;;4.90;3.23;;;18.70;1.00;;;;;;4950117;28;20462;-78
2023/06/11 01:30:05;;;;;;;3.90;3.40;;;18.70;1.00;;;;;;4957271;28;20555;-77
2023/06/11 01:32:33;;;;;;;3.40;3.10;;;18.70;1.00;;;;;;4960451;28;21595;-77
2023/06/11 01:35:02;;;;;;;6.17;3.50;;;18.70;1.00;;;;;;4958169;28;20689;-76
2023/06/11 01:37:29;;;;;;;5.60;3.73;;;18.60;1.00;;;;;;4963710;28;20517;-77
2023/06/11 01:39:56;;;;;;;4.57;3.33;;;18.60;1.00;;;;;;4964971;28;20479;-76
2023/06/11 01:42:25;;;;;;;4.40;3.80;;;18.60;1.00;;;;;;4950864;28;20477;-78
2023/06/11 01:44:52;;;;;;;4.90;3.10;;;18.50;1.00;;;;;;4960732;28;20909;-76
2023/06/11 01:47:21;;;;;;;3.87;3.43;;;18.50;1.00;;;;;;4963541;28;20487;-77
2023/06/11 01:49:49;;;;;;;5.20;4.00;;;18.40;1.00;;;;;;4963720;28;20465;-77
2023/06/11 01:52:16;;;;;;;5.73;3.60;;;18.40;1.00;;;;;;4961513;28;20587;-77
2023/06/11 01:54:43;;;;;;;6.20;3.97;;;18.30;1.00;;;;;;4964190;28;20477;-77
2023/06/11 01:57:11;;;;;;;4.90;3.43;;;18.30;1.00;;;;;;4962945;28;20483;-76
2023/06/11 01:59:38;;;;;;;4.13;3.77;;;18.30;1.00;;;;;;4962177;28;21049;-77
2023/06/11 02:02:05;;;;;;;4.53;3.07;;;18.30;1.00;;;;;;4965512;28;20470;-77
2023/06/11 02:04:33;;;;;;;5.00;3.30;;;18.20;1.00;;;;;;4962810;28;20488;-77
2023/06/11 02:07:00;;;;;;;4.50;3.60;;;18.20;1.00;;;;;;4962333;28;20986;-77
2023/06/11 02:09:29;;;;;;;4.00;3.27;;;18.10;1.00;;;;;;4964287;28;20485;-75
2023/06/11 02:15:21;;;;;;;4.50;3.50;;;18.00;1.00;;;;;;4933271;28;20476;-75
2023/06/11 02:17:48;;;;;;;3.67;3.37;;;18.00;1.00;;;;;;4942442;28;20453;-76
2023/06/11 02:20:16;;;;;;;4.50;3.50;;;17.90;1.00;;;;;;4959465;28;21778;-75
2023/06/11 02:22:43;;;;;;;5.30;4.00;;;17.90;1.00;;;;;;4963603;28;20527;-74
2023/06/11 02:25:12;;;;;;;6.87;3.93;;;17.90;1.00;;;;;;4962632;28;20664;-74
2023/06/11 02:27:39;;;;;;;4.40;3.80;;;17.90;1.00;;;;;;4957877;28;20525;-74
2023/06/11 02:30:08;;;;;;;3.80;3.50;;;17.90;1.00;;;;;;4959111;28;20473;-75
2023/06/11 02:32:35;;;;;;;4.17;3.60;;;17.90;1.00;;;;;;4958722;28;20970;-75
2023/06/11 02:35:02;;;;;;;4.27;3.80;;;17.90;1.00;;;;;;4949333;28;20470;-75
2023/06/11 02:37:30;;;;;;;5.17;3.60;;;17.80;1.00;;;;;;4955532;28;20489;-76
2023/06/11 02:39:57;;;;;;;5.13;3.80;;;17.80;1.00;;;;;;4959663;28;20529;-75
2023/06/11 02:42:25;;;;;;;4.00;3.60;;;17.80;1.00;;;;;;4959081;28;20541;-76
2023/06/11 02:44:53;;;;;;;3.97;3.60;;;17.80;1.00;;;;;;4958306;28;20485;-75
2023/06/11 02:47:20;;;;;;;3.60;3.30;;;17.70;1.00;;;;;;4957284;28;20460;-74
2023/06/11 02:49:50;;;;;;;4.77;3.60;;;17.70;1.00;;;;;;4952485;28;20484;-74
2023/06/11 02:52:20;;;;;;;4.90;3.77;;;17.60;1.00;;;;;;4960134;28;20465;-75
2023/06/11 02:54:48;;;;;;;6.23;3.17;;;17.60;1.00;;;;;;4965574;28;20563;-74
2023/06/11 02:57:16;;;;;;;5.37;3.60;;;17.50;1.00;;;;;;4964980;28;20572;-75
2023/06/11 02:59:42;;;;;;;4.47;3.60;;;17.50;1.00;;;;;;4954293;28;20527;-74
2023/06/11 03:02:09;;;;;;;3.60;2.87;;;17.40;1.00;;;;;;4960745;28;20464;-74
2023/06/11 03:04:37;;;;;;;10.83;3.80;;;17.40;1.00;;;;;;4963504;28;20476;-75
2023/06/11 03:07:07;;;;;;;5.10;3.30;;;17.40;1.00;;;;;;4967055;28;20465;-74
2023/06/11 03:09:34;;;;;;;4.90;3.77;;;17.40;1.00;;;;;;4964639;28;20884;-75
2023/06/11 03:12:03;;;;;;;4.70;3.50;;;17.40;1.00;;;;;;4962110;28;20472;-75
2023/06/11 03:14:31;;;;;;;4.03;3.73;;;17.30;1.00;;;;;;4964519;28;20507;-75
2023/06/11 03:17:06;;;;;;;7.77;4.20;;;17.30;1.00;;;;;;4962821;28;20559;-73
2023/06/11 03:19:33;;;;;;;4.90;3.47;;;17.20;1.00;;;;;;4958737;28;22019;-75
2023/06/11 03:22:00;;;;;;;6.23;3.50;;;17.20;1.00;;;;;;4959772;28;20457;-75
2023/06/11 03:24:27;;;;;;;3.80;3.33;;;17.20;1.00;;;;;;4964067;28;20533;-76
2023/06/11 03:26:54;;;;;;;5.53;3.20;;;17.20;1.00;;;;;;4963658;28;20516;-73
2023/06/11 03:29:22;;;;;;;5.70;4.27;;;17.10;1.00;;;;;;4962954;28;20481;-75
2023/06/11 03:31:49;;;;;;;4.00;3.00;;;17.10;1.00;;;;;;4966210;28;20496;-75
2023/06/11 03:34:18;;;;;;;3.80;3.40;;;17.10;1.00;;;;;;4968242;28;20484;-75
2023/06/11 03:36:47;;;;;;;3.53;3.07;;;17.00;1.00;;;;;;4968058;28;20527;-75
2023/06/11 03:39:18;;;;;;;4.37;3.90;;;17.00;1.00;;;;;;4967183;28;20564;-75
2023/06/11 03:41:46;;;;;;;5.40;3.07;;;17.10;1.00;;;;;;4948545;28;20476;-75
2023/06/11 03:44:12;;;;;;;3.03;2.83;;;17.10;1.00;;;;;;4965326;28;20502;-76
2023/06/11 03:46:41;;;;;;;3.77;3.10;;;17.10;1.00;;;;;;4969410;28;21008;-75
2023/06/11 03:49:08;;;;;;;5.10;3.40;;;17.10;1.00;;;;;;4966585;28;20535;-76
2023/06/11 03:51:35;;;;;;;3.33;2.80;;;17.10;1.00;;;;;;4964962;28;20479;-76
2023/06/11 03:54:02;;;;;;;3.60;2.67;;;17.20;1.00;;;;;;4964691;28;21059;-74
2023/06/11 03:56:30;;;;;;;3.57;2.70;;;17.10;1.00;;;;;;4964093;28;20568;-74
2023/06/11 03:59:00;;;;;;;5.00;2.77;;;17.10;1.00;;;;;;4963626;28;20473;-75
2023/06/11 04:01:27;;;;;;;3.70;3.40;;;17.10;1.00;;;;;;4967448;28;20495;-75
2023/06/11 04:03:55;;;;;;;3.70;3.40;;;17.10;1.00;;;;;;4961386;28;20508;-75
2023/06/11 04:06:22;;;;;;;5.87;3.13;;;17.10;1.00;;;;;;4961662;28;20468;-75
2023/06/11 04:08:49;;;;;;;3.70;2.73;;;17.10;1.00;;;;;;4956919;28;20475;-75
2023/06/11 04:11:16;;;;;;;3.67;2.60;;;17.00;1.00;;;;;;4975599;28;20552;-76
2023/06/11 04:13:49;;;;;;;4.07;3.10;;;17.00;1.00;;;;;;4963638;28;20491;-75
2023/06/11 04:16:16;;;;;;;4.67;3.87;;;17.00;1.00;;;;;;4965795;28;20941;-74
2023/06/11 04:18:43;;;;;;;5.17;3.17;;;17.00;1.00;;;;;;4965541;28;20476;-74
2023/06/11 04:21:12;;;;;;;5.17;2.80;;;17.00;1.00;;;;;;4967500;28;20461;-77
2023/06/11 04:23:39;;;;;;;3.30;3.00;;;17.00;1.00;;;;;;4967277;28;20774;-77
2023/06/11 04:26:07;;;;;;;5.73;3.17;;;17.10;1.00;;;;;;4962457;28;20463;-76
2023/06/11 04:28:36;;;;;;;6.23;3.20;;;17.10;1.00;;;;;;4965153;28;20465;-76
2023/06/11 04:31:04;;;;;;;3.40;3.10;;;17.20;1.00;;;;;;4966707;28;20842;-77
2023/06/11 04:33:32;;;;;;;4.07;3.20;;;17.20;1.00;;;;;;4963027;28;20538;-77
2023/06/11 04:36:01;;;;;;;4.23;3.40;;;17.20;1.00;;;;;;4967380;28;20457;-76
2023/06/11 04:38:30;;;;;;;4.27;2.63;;;17.20;1.00;;;;;;4961970;28;20491;-76
2023/06/11 04:40:57;;;;;;;4.87;3.33;;;17.20;1.00;;;;;;4966838;28;20469;-76
2023/06/11 04:43:25;;;;;;;3.30;2.97;;;17.20;1.00;;;;;;4966157;28;20470;-76
2023/06/11 04:45:55;;;;;;;5.37;3.20;;;17.20;1.00;;;;;;4964466;28;20499;-76
2023/06/11 04:48:22;;;;;;;8.10;3.63;;;17.20;1.00;;;;;;4961552;28;20481;-75
2023/06/11 04:50:51;;;;;;;5.73;3.03;;;17.20;1.00;;;;;;4965567;28;20458;-76
2023/06/11 04:53:21;;;;;;;4.13;2.63;;;17.30;1.00;;;;;;4965073;28;20497;-76
2023/06/11 04:55:54;;;;;;;3.80;3.50;;;17.30;1.00;;;;;;4967808;28;20475;-77
2023/06/11 04:58:21;;;;;;;4.60;3.47;;;17.40;1.00;;;;;;4966142;28;20468;-76
2023/06/11 05:00:48;;;;;;;4.10;3.50;;;17.40;1.00;;;;;;4964576;28;20466;-76
2023/06/11 05:03:21;;;;;;;5.10;3.40;;;17.40;1.00;;;;;;4966484;28;20559;-75
2023/06/11 05:05:51;;;;;;;4.80;3.17;;;17.50;1.00;;;;;;4966598;28;20460;-75
2023/06/11 05:08:19;;;;;;;6.00;3.50;;;17.60;1.00;;;;;;4964318;28;20474;-77
2023/06/11 05:10:47;;;;;;;5.37;2.97;;;17.70;1.00;;;;;;4957143;28;20472;-76
2023/06/11 05:13:16;;;;;;;3.20;2.67;;;17.70;1.00;;;;;;4961853;28;20484;-76
2023/06/11 05:15:43;;;;;;;3.00;2.70;;;17.80;1.00;;;;;;4959800;28;20918;-76
2023/06/11 05:18:10;;;;;;;5.53;2.80;;;17.90;1.00;;;;;;4964258;28;20492;-76
2023/06/11 05:20:37;;;;;;;4.73;3.03;;;18.00;1.00;;;;;;4965752;28;20460;-76
2023/06/11 05:23:05;;;;;;;4.70;3.23;;;18.10;1.00;;;;;;4964828;28;20477;-75
2023/06/11 05:25:32;;;;;;;3.93;3.37;;;18.20;1.00;;;;;;4967238;28;21052;-76
2023/06/11 05:28:03;;;;;;;3.77;3.13;;;18.20;1.00;;;;;;4964157;28;20465;-76
2023/06/11 05:30:36;;;;;;;5.17;3.70;;;18.30;1.00;;;;;;4964448;28;20495;-76
2023/06/11 05:33:03;;;;;;;4.60;3.93;;;18.40;1.00;;;;;;4964887;28;20473;-77
2023/06/11 05:35:30;;;;;;;5.13;3.13;;;18.50;1.00;;;;;;4967859;28;20470;-77
2023/06/11 05:37:57;;;;;;;3.13;2.83;;;18.60;1.00;;;;;;4967424;28;20500;-76
2023/06/11 05:40:25;;;;;;;5.93;3.33;;;18.60;1.00;;;;;;4964029;28;20418;-77
2023/06/11 05:42:52;;;;;;;5.00;3.30;;;18.50;1.00;;;;;;4951749;28;20595;-77
2023/06/11 05:45:19;;;;;;;3.67;3.30;;;18.50;1.00;;;;;;4968534;28;20480;-75
2023/06/11 05:47:49;;;;;;;4.60;3.20;;;18.50;1.00;;;;;;4964522;28;21190;-75
2023/06/11 05:50:16;;;;;;;5.10;3.87;;;18.70;1.00;;;;;;4963786;28;20459;-76
2023/06/11 05:52:44;;;;;;;4.50;3.20;;;18.80;1.00;;;;;;4966869;28;20591;-76
2023/06/11 05:55:11;;;;;;;5.33;3.70;;;18.90;1.00;;;;;;4965792;28;20479;-77
2023/06/11 05:57:38;;;;;;;5.37;3.60;;;19.10;1.00;;;;;;4965504;28;20558;-76
2023/06/11 06:00:12;;;;;;;5.77;3.50;;;19.30;1.00;;;;;;4965358;28;20479;-77
2023/06/11 06:02:39;;;;;;;3.73;3.37;;;19.40;1.00;;;;;;4961844;28;20477;-78
2023/06/11 06:05:09;;;;;;;4.43;3.70;;;19.50;1.00;;;;;;4948250;28;20602;-77
2023/06/11 06:07:37;;;;;;;4.13;3.53;;;19.60;1.00;;;;;;4964932;28;20461;-76
2023/06/11 06:10:04;;;;;;;7.10;3.37;;;19.60;1.00;;;;;;4962627;28;20566;-76
2023/06/11 06:12:32;;;;;;;5.37;3.40;;;19.70;1.00;;;;;;4967636;28;20487;-76
2023/06/11 06:15:01;;;;;;;4.20;3.80;;;19.70;1.00;;;;;;4961739;28;20448;-77
2023/06/11 06:17:27;;;;;;;3.93;3.47;;;19.80;1.00;;;;;;4963385;28;22307;-77
2023/06/11 06:19:55;;;;;;;4.87;4.37;;;19.80;1.00;;;;;;4960521;28;20594;-76
2023/06/11 06:22:23;;;;;;;5.57;3.40;;;19.90;1.00;;;;;;4960310;28;21865;-77
2023/06/11 06:24:50;;;;;;;4.63;2.83;;;19.90;1.00;;;;;;4961692;28;20476;-75
2023/06/11 06:27:17;;;;;;;5.13;3.83;;;20.00;1.00;;;;;;4965627;28;20495;-77
2023/06/11 06:29:44;;;;;;;4.53;3.87;;;20.00;1.00;;;;;;4965787;28;20471;-77
2023/06/11 06:32:12;;;;;;;6.03;3.90;;;20.00;1.00;;;;;;4968270;28;20482;-77
2023/06/11 06:34:40;;;;;;;4.30;3.90;;;20.20;1.00;;;;;;4962992;28;20540;-77
2023/06/11 06:37:09;;;;;;;4.53;3.63;;;20.30;1.00;;;;;;4963572;28;20460;-77
2023/06/11 06:39:37;;;;;;;4.30;3.90;;;20.40;1.00;;;;;;4962728;28;20479;-77
2023/06/11 06:42:04;;;;;;;4.73;4.13;;;20.50;1.00;;;;;;4958899;28;20570;-78
2023/06/11 06:44:31;;;;;;;5.40;4.20;;;20.60;1.00;;;;;;4968476;28;20459;-77
2023/06/11 06:46:58;;;;;;;5.30;3.93;;;20.60;1.00;;;;;;4963476;28;20460;-77
2023/06/11 06:49:25;;;;;;;5.03;3.97;;;20.60;1.00;;;;;;4962885;28;20467;-79
2023/06/11 06:51:52;;;;;;;4.07;3.50;;;20.60;1.00;;;;;;4960386;28;20478;-79
2023/06/11 06:54:22;;;;;;;4.93;4.40;;;20.70;1.00;;;;;;4969258;28;20531;-78
2023/06/11 06:56:52;;;;;;;4.40;4.00;;;20.60;1.00;;;;;;4964649;28;20522;-78
2023/06/11 06:59:19;;;;;;;5.63;4.13;;;20.50;1.00;;;;;;4962340;28;20556;-78
2023/06/11 07:01:50;;;;;;;4.93;4.13;;;20.60;1.00;;;;;;4963013;28;20482;-78
2023/06/11 07:04:20;;;;;;;4.37;3.50;;;20.50;1.00;;;;;;4960912;28;20478;-78
2023/06/11 07:06:47;;;;;;;7.77;5.03;;;20.50;1.00;;;;;;4961619;28;20561;-79
2023/06/11 07:09:15;;;;;;;4.03;3.70;;;20.60;1.00;;;;;;4958294;28;20478;-78
2023/06/11 07:11:42;;;;;;;8.47;4.30;;;20.80;1.00;;;;;;4960652;28;20527;-78
2023/06/11 07:14:16;;;;;;;6.80;4.13;;;20.90;1.00;;;;;;4958835;28;20499;-80
2023/06/11 07:16:43;;;;;;;5.27;3.70;;;20.90;1.00;;;;;;4953233;28;20559;-79
2023/06/11 07:19:10;;;;;;;4.67;3.90;;;20.90;1.00;;;;;;4960988;28;20468;-79
2023/06/11 07:21:37;;;;;;;5.17;4.67;;;21.10;1.00;;;;;;4960322;28;21032;-79
2023/06/11 07:24:07;;;;;;;6.33;4.10;;;21.20;1.00;;;;;;4963974;28;20466;-78
2023/06/11 07:26:34;;;;;;;7.70;4.60;;;21.30;1.00;;;;;;4963610;28;20469;-79
2023/06/11 07:29:02;;;;;;;4.63;4.33;;;21.40;1.00;;;;;;4958027;28;20445;-79
2023/06/11 07:31:33;;;;;;;3.93;3.63;;;21.40;1.00;;;;;;4962447;28;20494;-79
2023/06/11 07:34:00;;;;;;;7.00;4.20;;;21.50;1.00;;;;;;4963819;28;20462;-78
2023/06/11 07:36:27;;;;;;;5.63;4.10;;;21.70;1.00;;;;;;4949197;28;20658;-77
2023/06/11 07:38:54;;;;;;;5.93;4.47;;;21.80;1.00;;;;;;4965031;28;20890;-79
2023/06/11 07:41:21;;;;;;;5.17;3.90;;;21.80;1.00;;;;;;4970172;28;20488;-79
2023/06/11 07:43:52;;;;;;;4.13;3.40;;;21.90;1.00;;;;;;4969032;28;20644;-78
2023/06/11 07:46:19;;;;;;;5.57;4.67;;;22.00;1.00;;;;;;4965659;28;20484;-78
2023/06/11 07:48:52;;;;;;;7.93;4.70;;;22.10;1.00;;;;;;4965643;28;20574;-78
2023/06/11 07:51:23;;;;;;;5.53;4.27;;;22.20;1.00;;;;;;4967411;28;20924;-79
2023/06/11 07:53:50;;;;;;;6.67;4.00;;;22.50;1.00;;;;;;4970937;28;20544;-78
2023/06/11 07:56:17;;;;;;;6.50;4.23;;;22.80;1.00;;;;;;4966706;28;20477;-78
2023/06/11 07:58:46;;;;;;;4.47;4.07;;;23.00;1.00;;;;;;4970795;28;21017;-78
2023/06/11 08:01:14;;;;;;;5.97;4.10;;;23.10;1.00;;;;;;4963292;28;20495;-79
2023/06/11 08:03:41;;;;;;;6.27;4.40;;;23.30;1.00;;;;;;4969561;28;20483;-79
2023/06/11 08:06:10;;;;;;;5.20;4.73;;;23.40;1.00;;;;;;4964996;28;20469;-78
2023/06/11 08:08:37;;;;;;;5.13;4.17;;;23.40;1.00;;;;;;4971146;28;20924;-79
2023/06/11 08:11:06;;;;;;;7.80;4.43;;;23.60;1.00;;;;;;4965424;28;20476;-79
2023/06/11 08:13:35;;;;;;;5.50;4.73;;;23.60;1.00;;;;;;4966074;28;20465;-77
2023/06/11 08:16:02;;;;;;;6.90;4.70;;;23.60;1.00;;;;;;4963671;28;20449;-78
2023/06/11 08:18:32;;;;;;;9.47;5.17;;;23.70;1.00;;;;;;4966610;28;20461;-79
2023/06/11 08:21:00;;;;;;;11.57;10.50;;;23.80;1.00;;;;;;4969787;28;20623;-79
2023/06/11 08:23:30;;;;;;;6.63;6.03;;;24.00;1.00;;;;;;4967015;28;20465;-79
2023/06/11 08:25:58;;;;;;;8.60;5.30;;;24.10;1.00;;;;;;4969599;28;20961;-78
2023/06/11 08:28:26;;;;;;;6.77;5.17;;;24.20;1.00;;;;;;4968348;28;20463;-79
2023/06/11 08:30:53;;;;;;;5.67;5.00;;;24.10;1.00;;;;;;4967220;28;20459;-79
2023/06/11 08:33:21;;;;;;;4.33;3.93;;;24.00;1.00;;;;;;4968763;28;20557;-79
2023/06/11 08:35:48;;;;;;;7.67;4.70;;;24.20;1.00;;;;;;4970698;28;20562;-78
2023/06/11 08:38:15;;;;;;;5.23;4.70;;;24.40;1.00;;;;;;4970758;28;20623;-78
2023/06/11 08:40:44;;;;;;;4.57;4.27;;;24.50;1.00;;;;;;4967549;28;20476;-79
2023/06/11 08:43:11;;;;;;;6.40;5.20;;;24.40;1.00;;;;;;4966380;28;20905;-79
2023/06/11 08:45:38;;;;;;;5.63;4.80;;;24.50;1.00;;;;;;4966947;28;21005;-79
2023/06/11 08:48:06;;;;;;;7.53;4.70;;;24.60;1.00;;;;;;4970335;28;20545;-79
2023/06/11 08:50:33;;;;;;;6.13;5.30;;;24.70;1.00;;;;;;4968001;28;20472;-79
2023/06/11 08:53:04;;;;;;;5.63;5.13;;;24.80;1.00;;;;;;4973813;28;20469;-79
2023/06/11 08:55:31;;;;;;;4.87;4.43;;;25.00;1.00;;;;;;4970000;28;20466;-78
2023/06/11 08:58:01;;;;;;;5.20;4.80;;;24.90;1.00;;;;;;4965556;28;20513;-79
2023/06/11 09:00:29;;;;;;;5.63;5.13;;;25.10;1.00;;;;;;4952188;28;20485;-78
2023/06/11 09:02:56;;;;;;;5.47;4.77;;;25.10;1.00;;;;;;4951745;28;20557;-79
2023/06/11 09:05:24;;;;;;;5.93;5.43;;;25.30;1.00;;;;;;4967670;28;20466;-79
2023/06/11 09:07:52;;;;;;;6.27;4.87;;;25.40;1.00;;;;;;4968632;28;21062;-79
2023/06/11 09:10:19;;;;;;;6.33;5.73;;;25.40;1.00;;;;;;4967097;28;20480;-79
2023/06/11 09:12:48;;;;;;;5.93;5.40;;;25.40;1.00;;;;;;4967033;28;20596;-79
2023/06/11 09:15:20;;;;;;;7.00;5.37;;;25.50;1.00;;;;;;4948093;28;20855;-79
2023/06/11 09:17:47;;;;;;;6.77;5.90;;;25.60;1.00;;;;;;4968649;28;20473;-79
2023/06/11 09:20:16;;;;;;;6.17;5.70;;;25.70;1.00;;;;;;4966172;28;20468;-79
2023/06/11 09:22:45;;;;;;;5.43;4.93;;;25.80;1.00;;;;;;4964603;28;21010;-80
2023/06/11 09:25:16;;;;;;;5.37;4.87;;;25.90;1.00;;;;;;4967153;28;20575;-80
2023/06/11 09:27:44;;;;;;;6.80;5.10;;;26.10;1.00;;;;;;4966121;28;20463;-78
2023/06/11 09:30:15;;;;;;;8.30;6.53;;;26.10;1.00;;;;;;4968805;28;20613;-79
2023/06/11 09:32:45;;;;;;;5.70;5.20;;;26.40;1.00;;;;;;4970551;28;21003;-79
2023/06/11 09:35:13;;;;;;;6.50;5.90;;;26.60;1.00;;;;;;4965513;28;20951;-79
2023/06/11 09:37:42;;;;;;;6.07;5.23;;;26.80;1.00;;;;;;4951979;28;20460;-78
2023/06/11 09:40:12;;;;;;;7.37;5.50;;;27.40;1.00;;;;;;4967223;28;20732;-80
2023/06/11 09:42:43;;;;;;;6.37;5.07;;;28.90;1.00;;;;;;4965175;28;20475;-78
2023/06/11 09:45:16;;;;;;;6.30;5.70;;;30.20;1.00;;;;;;4968502;28;20463;-78
2023/06/11 09:47:46;;;;;;;11.10;6.43;;;31.50;1.00;;;;;;4965415;28;20498;-79
2023/06/11 09:50:14;;;;;;;5.93;5.33;;;32.50;1.00;;;;;;4968975;28;20483;-77
2023/06/11 09:52:42;;;;;;;10.80;6.50;;;33.30;1.00;;;;;;4965773;28;20529;-77
2023/06/11 09:55:10;;;;;;;6.00;5.60;;;33.80;1.00;;;;;;4967723;28;20927;-80
2023/06/11 09:57:38;;;;;;;6.30;5.70;;;34.00;1.00;;;;;;4966600;28;20468;-79
2023/06/11 10:00:09;;;;;;;6.73;5.93;;;34.20;1.00;;;;;;4963334;28;20475;-79
2023/06/11 10:02:37;;;;;;;6.50;5.90;;;34.20;1.00;;;;;;4968511;28;21024;-79
2023/06/11 10:05:07;;;;;;;6.60;6.07;;;35.00;1.00;;;;;;4969519;28;20472;-78
2023/06/11 10:07:43;;;;;;;6.37;5.87;;;35.10;1.00;;;;;;4955833;28;20467;-77
2023/06/11 10:10:12;;;;;;;8.20;5.70;;;35.40;1.00;;;;;;4963859;28;20479;-78
2023/06/11 10:12:39;;;;;;;6.73;6.13;;;35.40;1.00;;;;;;4967138;28;20543;-78
2023/06/11 10:15:11;;;;;;;6.73;6.03;;;35.60;1.00;;;;;;4968623;28;20809;-78
2023/06/11 10:17:49;;;;;;;6.10;5.70;;;36.30;1.00;;;;;;4965567;28;20463;-78
2023/06/11 10:20:26;;;;;;;6.30;5.73;;;36.80;1.00;;;;;;4968249;28;20563;-78
2023/06/11 10:23:04;;;;;;;7.73;7.00;;;37.00;1.00;;;;;;4964593;28;20465;-78
2023/06/11 10:25:34;;;;;;;7.23;6.30;;;37.50;1.00;;;;;;4963900;28;20477;-78
2023/06/11 10:28:01;;;;;;;8.00;7.20;;;37.70;1.00;;;;;;4964726;28;20464;-78
2023/06/11 10:30:28;;;;;;;8.23;6.10;;;37.40;1.00;;;;;;4962974;28;20476;-79
2023/06/11 10:32:57;;;;;;;6.80;6.30;;;37.20;1.00;;;;;;4963404;28;20448;-81
2023/06/11 10:35:28;;;;;;;6.87;6.37;;;37.40;1.00;;;;;;4963117;28;20530;-78
2023/06/11 10:38:04;;;;;;;8.30;6.93;;;36.30;1.00;;;;;;4965061;28;20451;-78
2023/06/11 10:40:38;;;;;;;7.23;6.30;;;35.40;1.00;;;;;;4964240;28;20929;-79
2023/06/11 10:43:15;;;;;;;6.83;6.23;;;36.40;1.00;;;;;;4961500;28;20475;-79
2023/06/11 10:45:42;;;;;;;6.87;6.03;;;37.30;1.00;;;;;;4966488;28;20583;-78
2023/06/11 10:48:11;;;;;;;6.80;6.27;;;37.20;1.00;;;;;;4965796;28;20484;-78
2023/06/11 10:50:40;;;;;;;6.83;6.23;;;36.20;1.00;;;;;;4968360;28;20480;-79
2023/06/11 10:53:12;;;;;;;6.47;6.07;;;36.10;1.00;;;;;;4969418;28;20451;-79
2023/06/11 10:55:43;;;;;;;7.40;6.80;;;36.60;1.00;;;;;;4965022;28;20857;-79
2023/06/11 10:58:20;;;;;;;6.83;6.13;;;37.20;1.00;;;;;;4965734;28;20472;-78
2023/06/11 11:00:47;;;;;;;6.90;5.87;;;35.80;1.00;;;;;;4947200;28;20496;-78
2023/06/11 11:03:15;;;;;;;6.83;6.33;;;34.10;1.00;;;;;;4966076;28;20471;-79
2023/06/11 11:05:43;;;;;;;7.47;6.77;;;33.60;1.00;;;;;;4962391;28;20469;-79
2023/06/11 11:08:11;;;;;;;6.83;6.37;;;34.30;1.00;;;;;;4968321;28;21039;-79
2023/06/11 11:10:38;;;;;;;6.33;5.87;;;35.50;1.00;;;;;;4969764;28;20482;-78
2023/06/11 11:13:05;;;;;;;6.97;6.30;;;36.50;1.00;;;;;;4967754;28;20523;-79
2023/06/11 11:15:32;;;;;;;6.50;6.00;;;37.30;1.00;;;;;;4969659;28;20519;-78
2023/06/11 11:17:59;;;;;;;8.90;6.83;;;37.50;1.00;;;;;;4970672;28;20468;-78
2023/06/11 11:20:26;;;;;;;8.70;6.50;;;37.40;1.00;;;;;;4971442;28;21010;-79
2023/06/11 11:22:56;;;;;;;7.43;6.77;;;36.20;1.00;;;;;;4967685;28;20579;-79
2023/06/11 11:25:28;;;;;;;7.53;6.87;;;34.90;1.00;;;;;;4969991;28;20483;-79
2023/06/11 11:27:55;;;;;;;8.63;7.67;;;33.80;1.00;;;;;;4966224;28;20461;-79
2023/06/11 11:30:28;;;;;;;6.70;6.10;;;34.10;1.00;;;;;;4969942;28;20463;-79
2023/06/11 11:32:56;;;;;;;8.20;7.57;;;34.30;1.00;;;;;;4965335;28;21072;-80
2023/06/11 11:35:26;;;;;;;7.00;6.40;;;33.70;1.00;;;;;;4970871;28;20701;-79
2023/06/11 11:37:55;;;;;;;8.10;7.40;;;34.80;1.00;;;;;;4967039;28;20583;-79
2023/06/11 11:40:23;;;;;;;8.37;7.60;;;35.70;1.00;;;;;;4967143;28;20931;-79
2023/06/11 11:42:52;;;;;;;7.07;6.47;;;36.60;1.00;;;;;;4971141;28;21035;-79
2023/06/11 11:45:20;;;;;;;8.20;7.60;;;37.20;1.00;;;;;;4967616;28;20555;-79
2023/06/11 11:47:51;;;;;;;8.13;7.33;;;37.90;1.00;;;;;;4969311;28;20987;-79
2023/06/11 11:50:22;;;;;;;7.50;6.80;;;38.10;1.00;;;;;;4968946;28;20467;-79
2023/06/11 11:53:05;;;;;;;7.90;7.20;;;37.50;1.00;;;;;;4963780;28;20459;-80
2023/06/11 11:55:35;;;;;;;7.60;6.90;;;36.10;1.00;;;;;;4966917;28;20467;-80
2023/06/11 11:58:09;;;;;;;8.77;8.07;;;35.80;1.00;;;;;;4951029;28;20475;-79
2023/06/11 12:00:46;;;;;;;8.47;7.70;;;36.70;1.00;;;;;;4960582;28;20468;-81
2023/06/11 12:03:13;;;;;;;9.00;8.27;;;37.40;1.00;;;;;;4964998;28;20454;-79
2023/06/11 12:05:40;;;;;;;8.20;7.53;;;38.10;1.00;;;;;;4967006;28;20626;-77
2023/06/11 12:08:10;;;;;;;7.90;7.23;;;38.70;1.00;;;;;;4970649;28;20944;-78
2023/06/11 12:10:37;;;;;;;7.60;7.10;;;39.50;1.00;;;;;;4971439;28;20987;-79
2023/06/11 12:13:05;;;;;;;8.30;7.70;;;38.70;1.00;;;;;;4969728;28;20949;-78
2023/06/11 12:15:34;;;;;;;9.00;8.10;;;38.50;1.00;;;;;;4969296;28;20978;-79
2023/06/11 12:18:01;;;;;;;7.83;7.23;;;39.30;1.00;;;;;;4965373;28;20503;-79
2023/06/11 12:20:28;;;;;;;8.87;8.17;;;39.20;1.00;;;;;;4955790;28;20537;-79
2023/06/11 12:22:55;;;;;;;9.20;8.50;;;37.20;1.00;;;;;;4964286;28;20976;-78
2023/06/11 12:25:25;;;;;;;9.93;9.03;;;35.50;1.00;;;;;;4972816;28;20487;-79
2023/06/11 12:27:53;;;;;;;9.70;9.10;;;34.10;1.00;;;;;;4969231;28;20487;-79
2023/06/11 12:30:20;;;;;;;9.37;8.77;;;33.90;1.00;;;;;;4968700;28;20523;-79
2023/06/11 12:32:47;;;;;;;8.60;8.10;;;34.20;1.00;;;;;;4967767;28;20559;-78
2023/06/11 12:35:16;;;;;;;8.80;8.10;;;35.40;1.00;;;;;;4965523;28;20508;-79
2023/06/11 12:37:48;;;;;;;8.97;8.33;;;36.50;1.00;;;;;;4966028;28;20525;-80
2023/06/11 12:40:15;;;;;;;8.80;8.30;;;35.70;1.00;;;;;;4964022;28;20551;-79
2023/06/11 12:42:44;;;;;;;9.03;8.43;;;34.90;1.00;;;;;;4965237;28;20472;-79
2023/06/11 12:45:14;;;;;;;9.60;8.90;;;34.70;1.00;;;;;;4958375;28;20464;-79
2023/06/11 12:47:42;;;;;;;11.50;10.20;;;36.10;1.00;;;;;;4962306;28;20478;-78
2023/06/11 12:50:09;;;;;;;9.83;9.13;;;36.80;1.00;;;;;;4949383;28;20579;-79
2023/06/11 12:52:39;;;;;;;8.90;8.10;;;37.40;1.00;;;;;;4967128;28;20455;-79
2023/06/11 12:55:06;;;;;;;9.23;8.53;;;38.50;1.00;;;;;;4968933;28;20484;-79
2023/06/11 12:57:34;;;;;;;9.57;8.70;;;39.10;1.00;;;;;;4967683;28;20437;-81
2023/06/11 13:00:06;;;;;;;10.07;9.30;;;39.60;1.00;;;;;;4970466;28;20480;-79
2023/06/11 13:02:33;;;;;;;9.50;8.77;;;39.10;1.00;;;;;;4969835;28;20542;-79
2023/06/11 13:05:01;;;;;;;10.03;9.10;;;39.00;1.00;;;;;;4964958;28;20448;-78
2023/06/11 13:07:29;;;;;;;9.43;8.70;;;39.80;1.00;;;;;;4971907;28;20480;-80
2023/06/11 13:09:56;;;;;;;8.50;8.00;;;40.30;1.00;;;;;;4967555;28;20451;-78